Time;durP1;ratioP1;P1;durP2;ratioP2;P2;SDS_P1;SDS_P2;PMS_P1;PMS_P2;Temp;Humidity;BMP_temperature;BMP_pressure;BME280_temperature;BME280_humidity;BME280_pressure;Samples;Min_cycle;Max_cycle;Signal;HPM_P1;HPM_P2
2021/12/21 00:00:31;;;;;;;41.40;3.53;;;2.80;41.10;;;;;;5051484;28;20434;-74
2021/12/21 00:02:57;;;;;;;34.13;2.47;;;;;;;;;;5052708;28;20651;-76
2021/12/21 00:05:27;;;;;;;31.27;2.90;;;2.70;41.70;;;;;;5052842;28;20200;-73
2021/12/21 00:07:55;;;;;;;41.15;2.40;;;2.60;41.20;;;;;;5050794;28;20172;-74
2021/12/21 00:10:23;;;;;;;35.90;3.20;;;2.60;41.50;;;;;;5051554;28;20199;-76
2021/12/21 00:13:02;;;;;;;59.17;3.75;;;;;;;;;;5052498;28;20172;-74
2021/12/21 00:19:00;;;;;;;66.63;4.22;;;;;;;;;;5040486;28;20191;-73
2021/12/21 00:23:41;;;;;;;58.80;4.45;;;2.50;41.00;;;;;;5052976;28;20230;-76
2021/12/21 00:26:09;;;;;;;86.28;4.32;;;;;;;;;;5055423;28;20651;-74
2021/12/21 00:31:21;;;;;;;34.97;3.45;;;2.40;40.80;;;;;;5056368;28;20286;-74
2021/12/21 00:33:47;;;;;;;51.15;3.90;;;;;;;;;;5055912;28;20282;-74
2021/12/21 00:36:14;;;;;;;108.85;6.00;;;;;;;;;;5052402;28;20180;-76
2021/12/21 00:38:40;;;;;;;37.78;2.85;;;;;;;;;;5050757;28;20184;-73
2021/12/21 00:41:06;;;;;;;36.55;2.70;;;;;;;;;;5051616;28;20286;-74
2021/12/21 00:43:33;;;;;;;38.17;2.85;;;;;;;;;;5051993;28;20717;-74
2021/12/21 00:45:59;;;;;;;87.07;4.05;;;;;;;;;;5051282;28;20206;-73
2021/12/21 00:48:29;;;;;;;44.20;3.03;;;2.50;41.60;;;;;;5051989;28;20172;-74
2021/12/21 00:50:56;;;;;;;44.28;2.95;;;;;;;;;;5051194;28;20572;-74
2021/12/21 00:53:22;;;;;;;44.67;3.00;;;;;;;;;;5051848;28;20669;-74
2021/12/21 00:55:48;;;;;;;65.30;3.35;;;;;;;;;;5050605;28;20663;-73
2021/12/21 00:58:14;;;;;;;42.83;2.65;;;;;;;;;;5049554;28;20644;-74
2021/12/21 01:00:40;;;;;;;45.63;2.58;;;;;;;;;;5050837;28;20226;-74
2021/12/21 01:03:10;;;;;;;35.72;2.60;;;;;;;;;;5053441;28;20172;-74
2021/12/21 01:05:50;;;;;;;44.20;3.08;;;;;;;;;;5054143;28;20191;-74
2021/12/21 01:08:21;;;;;;;50.70;4.35;;;;;;;;;;5053652;28;20206;-73
2021/12/21 01:13:34;;;;;;;41.65;3.30;;;;;;;;;;5054421;28;20180;-74
2021/12/21 01:16:16;;;;;;;35.67;5.30;;;;;;;;;;5044331;28;20182;-79
2021/12/21 01:21:26;;;;;;;36.70;2.28;;;;;;;;;;5049881;28;20310;-74
2021/12/21 01:24:17;;;;;;;57.40;5.47;;;1.90;42.00;;;;;;5056633;28;20618;-74
2021/12/21 01:29:48;;;;;;;54.25;3.53;;;;;;;;;;5041775;28;20196;-75
2021/12/21 01:35:09;;;;;;;40.03;2.97;;;1.80;40.70;;;;;;5030003;28;20642;-73
2021/12/21 01:40:21;;;;;;;57.40;3.63;;;1.80;40.80;;;;;;5051289;28;20207;-74
2021/12/21 01:51:03;;;;;;;83.60;4.22;;;;;;;;;;5049332;28;20258;-74
2021/12/21 01:53:29;;;;;;;75.97;5.15;;;;;;;;;;5048966;28;20179;-73
2021/12/21 01:55:56;;;;;;;64.75;3.88;;;;;;;;;;5048099;28;20546;-78
2021/12/21 01:58:22;;;;;;;60.20;3.97;;;;;;;;;;5049864;28;20188;-74
2021/12/21 02:00:48;;;;;;;54.90;3.33;;;;;;;;;;5049167;28;20203;-74
2021/12/21 02:03:14;;;;;;;58.92;4.20;;;;;;;;;;5050814;28;20264;-76
2021/12/21 02:05:40;;;;;;;58.92;3.20;;;;;;;;;;5052974;28;20207;-76
2021/12/21 02:08:06;;;;;;;76.00;3.78;;;;;;;;;;5053415;28;20190;-76
2021/12/21 02:10:33;;;;;;;83.63;5.90;;;;;;;;;;5054430;28;20207;-77
2021/12/21 02:12:59;;;;;;;70.38;4.32;;;;;;;;;;5053862;28;20659;-76
2021/12/21 02:15:25;;;;;;;72.45;5.07;;;;;;;;;;5053128;28;20207;-75
2021/12/21 02:23:39;;;;;;;71.80;4.47;;;;;;;;;;5053883;28;20199;-76
2021/12/21 02:30:49;;;;;;;72.93;3.75;;;;;;;;;;5053294;28;20343;-76
2021/12/21 02:33:15;;;;;;;79.68;4.55;;;;;;;;;;5050871;28;20195;-77
2021/12/21 02:35:41;;;;;;;62.10;3.53;;;;;;;;;;5053172;28;20184;-74
2021/12/21 02:38:08;;;;;;;62.80;4.60;;;;;;;;;;5052100;28;20180;-73
2021/12/21 02:40:35;;;;;;;64.90;4.07;;;2.60;42.80;;;;;;5053010;28;20203;-74
2021/12/21 02:43:01;;;;;;;37.63;3.55;;;;;;;;;;5052518;28;20184;-74
2021/12/21 02:45:27;;;;;;;47.88;3.70;;;;;;;;;;5052022;28;20207;-74
2021/12/21 02:47:53;;;;;;;80.82;4.75;;;;;;;;;;5053449;28;20187;-73
2021/12/21 02:50:19;;;;;;;68.60;4.15;;;;;;;;;;5052572;28;20249;-76
2021/12/21 02:52:50;;;;;;;36.47;2.60;;;;;;;;;;5052492;28;20225;-77
2021/12/21 02:55:17;;;;;;;61.90;4.80;;;;;;;;;;5051193;28;20196;-74
2021/12/21 02:57:45;;;;;;;64.90;3.25;;;;;;;;;;5054474;28;20215;-74
2021/12/21 03:00:12;;;;;;;61.22;3.28;;;2.20;45.00;;;;;;5053735;28;20203;-74
2021/12/21 03:02:38;;;;;;;39.92;2.40;;;;;;;;;;5052703;28;20648;-74
2021/12/21 03:05:05;;;;;;;52.40;3.90;;;1.90;45.30;;;;;;5052885;28;20619;-74
2021/12/21 03:10:22;;;;;;;37.30;4.63;;;;;;;;;;5051769;28;20261;-75
2021/12/21 03:15:18;;;;;;;56.10;4.68;;;;;;;;;;5052782;28;20252;-74
2021/12/21 03:17:44;;;;;;;31.08;2.22;;;;;;;;;;5053050;28;20640;-75
2021/12/21 03:20:11;;;;;;;50.53;2.88;;;;;;;;;;5053172;28;20216;-74
2021/12/21 03:22:37;;;;;;;61.38;3.67;;;1.90;44.20;;;;;;5051401;28;20557;-74
2021/12/21 03:25:03;;;;;;;43.57;2.93;;;;;;;;;;5053296;28;20176;-75
2021/12/21 03:27:29;;;;;;;45.22;3.00;;;;;;;;;;5051723;28;20426;-74
2021/12/21 03:29:55;;;;;;;39.90;3.97;;;;;;;;;;5053265;28;20180;-76
2021/12/21 03:32:21;;;;;;;46.25;2.70;;;;;;;;;;5053085;28;20198;-75
2021/12/21 03:34:47;;;;;;;62.92;3.25;;;;;;;;;;5052326;28;20627;-75
2021/12/21 03:37:14;;;;;;;43.15;2.55;;;;;;;;;;5052960;28;20713;-75
2021/12/21 03:39:41;;;;;;;37.30;3.63;;;;;;;;;;5053202;28;20203;-74
2021/12/21 03:42:07;;;;;;;37.42;2.78;;;2.20;43.50;;;;;;5052904;28;20202;-75
2021/12/21 03:44:34;;;;;;;39.97;3.33;;;2.00;44.20;;;;;;5053085;28;20219;-75
2021/12/21 03:47:00;;;;;;;98.55;4.13;;;;;;;;;;5052609;28;20199;-74
2021/12/21 03:52:01;;;;;;;73.80;4.22;;;;;;;;;;5051944;28;20200;-74
2021/12/21 03:54:27;;;;;;;52.05;3.58;;;;;;;;;;5052418;28;20176;-74
2021/12/21 03:56:53;;;;;;;27.40;3.25;;;;;;;;;;5053037;28;20638;-74
2021/12/21 03:59:20;;;;;;;26.08;2.55;;;2.00;44.40;;;;;;5052280;28;20180;-77
2021/12/21 04:01:47;;;;;;;39.10;2.58;;;2.10;43.80;;;;;;5051736;28;20211;-74
2021/12/21 04:04:13;;;;;;;44.08;2.60;;;;;;;;;;5051225;28;20183;-77
2021/12/21 04:06:40;;;;;;;30.08;3.50;;;;;;;;;;5049737;28;20212;-74
2021/12/21 04:09:06;;;;;;;64.32;4.38;;;;;;;;;;5051568;28;20207;-75
2021/12/21 04:11:33;;;;;;;54.97;3.50;;;;;;;;;;5051473;28;20284;-74
2021/12/21 04:14:00;;;;;;;48.58;2.83;;;;;;;;;;5050980;28;20187;-75
2021/12/21 04:16:26;;;;;;;82.47;4.05;;;;;;;;;;5051150;28;20211;-77
2021/12/21 04:18:52;;;;;;;39.78;3.20;;;;;;;;;;5050305;28;20179;-75
2021/12/21 04:21:18;;;;;;;33.42;2.90;;;;;;;;;;5051269;28;20222;-80
2021/12/21 04:23:44;;;;;;;59.33;4.38;;;;;;;;;;5049549;28;20698;-76
2021/12/21 04:26:12;;;;;;;95.35;6.35;;;2.00;45.00;;;;;;5049765;28;20245;-75
2021/12/21 04:28:38;;;;;;;48.50;3.10;;;;;;;;;;5051845;28;20179;-74
2021/12/21 04:31:05;;;;;;;38.97;3.00;;;;;;;;;;5050620;28;20223;-77
2021/12/21 04:33:32;;;;;;;30.20;2.90;;;1.90;45.00;;;;;;5051953;28;20233;-74
2021/12/21 04:35:58;;;;;;;50.67;2.80;;;;;;;;;;5052109;28;21057;-74
2021/12/21 04:38:29;;;;;;;52.55;2.95;;;;;;;;;;5051741;28;20179;-77
2021/12/21 04:41:01;;;;;;;43.72;2.72;;;;;;;;;;5051134;28;20195;-74
2021/12/21 04:43:27;;;;;;;64.40;3.15;;;;;;;;;;5051261;28;20263;-74
2021/12/21 04:45:53;;;;;;;54.13;3.00;;;;;;;;;;5049607;28;20550;-76
2021/12/21 04:48:20;;;;;;;67.93;3.50;;;;;;;;;;5049060;28;20204;-75
2021/12/21 04:50:46;;;;;;;33.47;2.00;;;;;;;;;;5051035;28;20203;-74
2021/12/21 04:53:12;;;;;;;60.53;2.97;;;;;;;;;;5050986;28;20186;-74
2021/12/21 04:55:38;;;;;;;64.18;3.65;;;;;;;;;;5049401;28;20188;-75
2021/12/21 04:58:04;;;;;;;50.58;3.33;;;;;;;;;;5050880;28;20187;-76
2021/12/21 05:00:30;;;;;;;56.00;5.43;;;;;;;;;;5050277;28;20203;-75
2021/12/21 05:02:56;;;;;;;54.75;3.28;;;;;;;;;;5040690;28;20233;-76
2021/12/21 05:05:23;;;;;;;96.97;7.00;;;;;;;;;;5051565;28;20653;-74
2021/12/21 05:07:54;;;;;;;66.18;3.55;;;;;;;;;;5051141;28;20179;-74
2021/12/21 05:10:21;;;;;;;49.88;3.15;;;;;;;;;;5051213;28;20195;-75
2021/12/21 05:12:47;;;;;;;102.20;5.50;;;;;;;;;;5051366;28;20635;-74
2021/12/21 05:15:13;;;;;;;72.35;3.15;;;;;;;;;;5049590;28;20175;-79
2021/12/21 05:17:39;;;;;;;59.75;3.00;;;;;;;;;;5050734;28;20183;-78
2021/12/21 05:20:05;;;;;;;48.25;2.80;;;1.50;45.50;;;;;;5049112;28;20216;-78
2021/12/21 05:22:31;;;;;;;58.92;3.05;;;;;;;;;;5049157;28;20202;-77
2021/12/21 05:24:58;;;;;;;66.10;5.18;;;;;;;;;;5049433;28;20171;-80
2021/12/21 05:27:24;;;;;;;51.45;3.70;;;1.20;43.90;;;;;;5052690;28;20207;-76
2021/12/21 05:29:50;;;;;;;37.67;3.20;;;;;;;;;;5059140;28;20190;-77
2021/12/21 05:32:16;;;;;;;40.47;2.97;;;;;;;;;;5052064;28;20410;-77
2021/12/21 05:34:42;;;;;;;36.17;2.95;;;;;;;;;;5053602;28;20317;-76
2021/12/21 05:37:08;;;;;;;29.00;2.58;;;;;;;;;;5051855;28;20215;-76
2021/12/21 05:39:57;;;;;;;22.52;3.15;;;1.80;42.70;;;;;;5054270;28;20187;-76
2021/12/21 05:42:23;;;;;;;53.10;3.28;;;;;;;;;;5053903;28;20229;-76
2021/12/21 05:44:49;;;;;;;48.35;2.80;;;;;;;;;;5050472;28;20184;-74
2021/12/21 05:47:16;;;;;;;36.65;2.40;;;;;;;;;;5050638;28;20204;-74
2021/12/21 05:49:42;;;;;;;41.47;3.35;;;;;;;;;;5051182;28;20176;-74
2021/12/21 05:52:08;;;;;;;43.35;3.45;;;;;;;;;;5050847;28;20199;-74
2021/12/21 05:54:34;;;;;;;58.20;3.97;;;;;;;;;;5047307;28;20180;-74
2021/12/21 05:57:01;;;;;;;90.07;4.57;;;;;;;;;;5049012;28;20274;-74
2021/12/21 05:59:27;;;;;;;53.78;3.10;;;;;;;;;;5048204;28;20184;-76
2021/12/21 06:01:53;;;;;;;47.80;2.53;;;;;;;;;;5049531;28;20210;-77
2021/12/21 06:04:19;;;;;;;41.08;3.15;;;;;;;;;;5050423;28;20186;-77
2021/12/21 06:06:45;;;;;;;45.17;2.83;;;;;;;;;;5050332;28;20552;-76
2021/12/21 06:09:12;;;;;;;39.95;3.42;;;;;;;;;;5049359;28;20215;-78
2021/12/21 06:11:47;;;;;;;32.13;2.80;;;;;;;;;;5050739;28;20294;-75
2021/12/21 06:14:23;;;;;;;39.10;2.60;;;;;;;;;;5032339;28;20219;-77
2021/12/21 06:27:36;;;;;;;35.45;4.93;;;0.70;44.10;;;;;;5043405;28;20196;-75
2021/12/21 06:30:03;;;;;;;54.97;4.00;;;0.70;42.80;;;;;;5049288;28;20168;-75
2021/12/21 06:32:29;;;;;;;35.95;3.55;;;;;;;;;;5049230;28;20188;-75
2021/12/21 06:34:55;;;;;;;37.90;4.13;;;;;;;;;;5050980;28;20168;-75
2021/12/21 06:37:21;;;;;;;29.05;3.35;;;;;;;;;;5050224;28;20184;-77
2021/12/21 06:39:48;;;;;;;30.13;2.17;;;;;;;;;;5050166;28;20176;-77
2021/12/21 06:42:14;;;;;;;34.72;4.03;;;0.70;40.90;;;;;;5050406;28;20184;-76
2021/12/21 06:44:43;;;;;;;33.08;2.47;;;0.50;41.30;;;;;;5050415;28;20178;-75
2021/12/21 06:52:40;;;;;;;37.80;3.30;;;;;;;;;;5054673;28;20565;-76
2021/12/21 06:55:06;;;;;;;55.10;4.43;;;;;;;;;;5054043;28;20610;-76
2021/12/21 06:57:32;;;;;;;18.27;2.47;;;;;;;;;;5054130;28;20215;-76
2021/12/21 06:59:58;;;;;;;32.80;4.63;;;;;;;;;;5053943;28;20252;-78
2021/12/21 07:02:24;;;;;;;31.63;3.88;;;;;;;;;;5054226;28;20225;-80
2021/12/21 07:04:50;;;;;;;30.65;2.72;;;;;;;;;;5054302;28;20190;-78
2021/12/21 07:07:17;;;;;;;29.42;3.05;;;;;;;;;;5054110;28;20663;-78
2021/12/21 07:09:46;;;;;;;30.92;4.53;;;0.10;42.80;;;;;;5054107;28;20176;-78
2021/12/21 07:20:08;;;;;;;38.25;2.42;;;;;;;;;;5053846;28;20214;-78
2021/12/21 07:22:34;;;;;;;23.73;2.70;;;;;;;;;;5054145;28;20713;-76
2021/12/21 07:25:00;;;;;;;23.65;3.40;;;0.50;42.40;;;;;;5054853;28;20180;-78
2021/12/21 07:27:25;;;;;;;24.37;1.93;;;0.10;43.60;;;;;;5052816;28;20207;-77
2021/12/21 07:29:51;;;;;;;40.83;2.60;;;0.20;43.40;;;;;;5053148;28;20179;-76
2021/12/21 07:32:17;;;;;;;26.90;3.23;;;;;;;;;;5053516;28;20234;-79
2021/12/21 07:34:43;;;;;;;24.20;2.20;;;;;;;;;;5053664;28;20297;-82
2021/12/21 07:37:10;;;;;;;14.95;1.85;;;;;;;;;;5054018;28;20635;-81
2021/12/21 07:39:37;;;;;;;32.85;4.03;;;0.30;42.90;;;;;;5053574;28;20211;-79
2021/12/21 07:42:04;;;;;;;47.75;3.88;;;0.40;41.30;;;;;;5052064;28;20741;-77
2021/12/21 07:44:30;;;;;;;99.75;5.00;;;0.50;40.80;;;;;;5053535;28;20195;-78
2021/12/21 07:46:56;;;;;;;35.90;3.30;;;0.40;40.70;;;;;;5052786;28;20208;-79
2021/12/21 07:49:22;;;;;;;37.17;4.63;;;;;;;;;;5051802;28;20179;-79
2021/12/21 07:51:48;;;;;;;32.10;3.13;;;0.90;39.50;;;;;;5053659;28;20372;-79
2021/12/21 07:54:15;;;;;;;37.92;2.70;;;0.90;39.30;;;;;;5053559;28;20180;-79
2021/12/21 07:56:41;;;;;;;25.83;2.55;;;0.80;39.50;;;;;;5053284;28;20647;-79
2021/12/21 07:59:06;;;;;;;41.37;3.00;;;0.40;40.70;;;;;;5051672;28;20241;-78
2021/12/21 08:01:32;;;;;;;27.23;2.93;;;0.40;40.70;;;;;;5052786;28;20203;-79
2021/12/21 08:03:58;;;;;;;32.38;3.20;;;0.20;41.40;;;;;;5046469;28;20192;-79
2021/12/21 08:06:28;;;;;;;35.83;3.33;;;0.30;41.90;;;;;;5044478;28;20217;-79
2021/12/21 08:08:54;;;;;;;32.20;3.13;;;;;;;;;;5037344;28;20521;-79
2021/12/21 08:14:02;;;;;;;30.73;2.85;;;;;;;;;;5052343;28;20239;-79
2021/12/21 08:16:28;;;;;;;29.48;2.67;;;0.20;41.60;;;;;;5050987;28;20188;-80
2021/12/21 08:18:54;;;;;;;35.27;3.23;;;;;;;;;;5051876;28;20257;-82
2021/12/21 08:21:22;;;;;;;18.27;2.28;;;0.10;43.10;;;;;;5051863;28;20722;-82
2021/12/21 08:23:48;;;;;;;29.75;4.45;;;;;;;;;;5052189;28;20263;-82
2021/12/21 08:26:15;;;;;;;70.93;3.80;;;0.40;41.90;;;;;;5050967;28;20290;-82
2021/12/21 08:28:41;;;;;;;26.65;2.38;;;0.60;41.40;;;;;;5051902;28;20187;-80
2021/12/21 08:31:13;;;;;;;54.85;3.50;;;0.50;40.80;;;;;;5052027;28;20278;-80
2021/12/21 08:33:41;;;;;;;26.83;1.98;;;0.40;41.70;;;;;;5051905;28;20183;-80
2021/12/21 08:36:07;;;;;;;87.43;6.03;;;0.60;40.90;;;;;;5048519;28;20210;-79
2021/12/21 08:38:36;;;;;;;26.95;2.35;;;1.00;41.20;;;;;;5047821;28;20192;-79
2021/12/21 08:41:02;;;;;;;46.90;3.42;;;1.10;40.30;;;;;;5051614;28;20196;-79
2021/12/21 08:43:31;;;;;;;31.13;2.33;;;;;;;;;;5051443;28;20196;-79
2021/12/21 08:45:57;;;;;;;29.50;4.20;;;;;;;;;;5051845;28;20721;-79
2021/12/21 08:48:25;;;;;;;52.13;2.78;;;1.20;39.40;;;;;;5051184;28;20183;-83
2021/12/21 08:50:53;;;;;;;28.27;2.50;;;;;;;;;;5050936;28;20196;-79
2021/12/21 08:53:20;;;;;;;41.10;3.42;;;1.20;41.40;;;;;;5051218;28;20172;-80
2021/12/21 08:55:46;;;;;;;43.97;2.80;;;;;;;;;;5051818;28;20202;-79
2021/12/21 08:58:15;;;;;;;29.92;3.63;;;;;;;;;;5050993;28;22072;-78
2021/12/21 09:00:41;;;;;;;34.30;2.70;;;0.80;41.80;;;;;;5051418;28;20195;-83
2021/12/21 09:03:08;;;;;;;19.83;2.70;;;;;;;;;;5049322;28;20561;-79
2021/12/21 09:05:35;;;;;;;35.45;2.55;;;0.80;42.50;;;;;;5050230;28;20430;-80
2021/12/21 09:08:02;;;;;;;28.95;2.30;;;;;;;;;;5051757;28;20263;-78
2021/12/21 09:10:29;;;;;;;61.45;3.83;;;0.50;43.90;;;;;;5049824;28;20199;-82
2021/12/21 09:12:56;;;;;;;58.47;3.72;;;0.60;44.00;;;;;;5050379;28;20176;-78
2021/12/21 09:15:22;;;;;;;30.52;3.72;;;;;;;;;;5051417;28;20259;-79
2021/12/21 09:17:48;;;;;;;27.63;2.45;;;;;;;;;;5052024;28;20176;-84
2021/12/21 09:20:16;;;;;;;35.00;2.83;;;0.60;44.50;;;;;;5045557;28;20220;-82
2021/12/21 09:22:43;;;;;;;29.30;2.67;;;;;;;;;;5050984;28;20208;-80
2021/12/21 09:25:10;;;;;;;22.33;1.90;;;0.50;46.20;;;;;;5051803;28;20176;-79
2021/12/21 09:27:36;;;;;;;31.83;2.13;;;;;;;;;;5050561;28;20223;-79
2021/12/21 09:30:03;;;;;;;36.42;2.53;;;;;;;;;;5050303;28;20708;-79
2021/12/21 09:32:29;;;;;;;22.05;2.22;;;;;;;;;;5052319;28;20183;-81
2021/12/21 09:34:55;;;;;;;33.03;3.67;;;;;;;;;;5056151;28;20628;-80
2021/12/21 09:37:21;;;;;;;38.97;2.85;;;;;;;;;;5057254;28;20184;-82
2021/12/21 09:39:49;;;;;;;42.88;3.55;;;;;;;;;;5052849;28;20643;-79
2021/12/21 09:42:19;;;;;;;45.63;3.08;;;;;;;;;;5065089;28;20677;-79
2021/12/21 09:44:45;;;;;;;27.65;2.60;;;;;;;;;;5058387;28;20184;-81
2021/12/21 09:47:12;;;;;;;26.40;2.33;;;2.30;39.50;;;;;;5053437;28;20293;-82
2021/12/21 09:49:39;;;;;;;47.63;3.35;;;;;;;;;;5056621;28;20184;-79
2021/12/21 09:52:07;;;;;;;38.42;3.80;;;2.00;40.90;;;;;;5048864;28;20204;-79
2021/12/21 09:54:36;;;;;;;32.63;2.92;;;;;;;;;;5052518;28;20188;-80
2021/12/21 09:57:03;;;;;;;36.42;3.38;;;;;;;;;;5049074;28;20180;-79
2021/12/21 09:59:29;;;;;;;41.28;4.53;;;;;;;;;;5058833;28;20670;-78
2021/12/21 10:01:57;;;;;;;28.10;2.58;;;;;;;;;;5046600;28;20283;-78
2021/12/21 10:04:24;;;;;;;32.15;3.85;;;;;;;;;;5055323;28;20229;-79
2021/12/21 10:06:51;;;;;;;48.03;4.00;;;2.40;41.60;;;;;;5063869;28;20208;-80
2021/12/21 10:09:21;;;;;;;31.92;3.88;;;;;;;;;;5037650;28;20208;-78
2021/12/21 10:11:48;;;;;;;40.05;2.60;;;;;;;;;;5030375;28;20254;-79
2021/12/21 10:14:16;;;;;;;26.77;2.10;;;2.30;42.00;;;;;;5038177;28;20184;-79
2021/12/21 10:16:43;;;;;;;30.98;3.67;;;2.10;42.10;;;;;;5050859;28;20176;-78
2021/12/21 10:19:19;;;;;;;30.42;3.50;;;2.20;42.60;;;;;;5051156;28;20180;-78
2021/12/21 10:21:46;;;;;;;37.03;2.50;;;;;;;;;;5051100;28;20288;-78
2021/12/21 10:24:22;;;;;;;44.40;3.88;;;;;;;;;;5054358;28;20866;-78
2021/12/21 10:26:48;;;;;;;41.80;4.40;;;;;;;;;;5034675;28;20210;-79
2021/12/21 10:29:15;;;;;;;28.08;3.00;;;3.20;41.00;;;;;;5041437;28;20180;-79
2021/12/21 10:31:45;;;;;;;32.78;3.72;;;;;;;;;;5054904;28;20196;-79
2021/12/21 10:34:16;;;;;;;22.73;2.45;;;3.10;41.80;;;;;;5054978;28;20161;-78
2021/12/21 10:36:50;;;;;;;35.45;2.50;;;3.00;42.20;;;;;;5054072;28;20192;-81
2021/12/21 10:39:26;;;;;;;32.22;4.15;;;3.10;42.50;;;;;;5041794;28;20261;-81
2021/12/21 10:41:56;;;;;;;35.08;2.72;;;3.50;41.90;;;;;;5054747;28;20203;-78
2021/12/21 10:44:22;;;;;;;38.58;3.15;;;;;;;;;;5054546;28;20188;-78
2021/12/21 10:46:52;;;;;;;38.10;2.72;;;3.10;43.00;;;;;;5052787;28;20298;-79
2021/12/21 10:49:24;;;;;;;29.33;3.03;;;2.90;43.60;;;;;;5054548;28;20168;-80
2021/12/21 10:51:52;;;;;;;46.78;3.28;;;;;;;;;;5054524;28;20196;-78
2021/12/21 10:54:29;;;;;;;31.08;2.38;;;;;;;;;;5054219;28;20180;-79
2021/12/21 10:57:17;;;;;;;49.65;4.82;;;3.10;45.60;;;;;;5053740;28;20266;-78
2021/12/21 10:59:47;;;;;;;62.88;3.20;;;3.10;44.90;;;;;;5054218;28;20165;-79
2021/12/21 11:02:18;;;;;;;31.42;3.25;;;;;;;;;;5054231;28;20249;-78
2021/12/21 11:04:46;;;;;;;39.80;3.50;;;;;;;;;;5054075;28;20301;-78
2021/12/21 11:07:27;;;;;;;25.85;3.53;;;;;;;;;;5053602;28;20191;-78
2021/12/21 11:09:57;;;;;;;38.08;2.75;;;;;;;;;;5054079;28;20659;-78
2021/12/21 11:12:25;;;;;;;26.95;3.60;;;;;;;;;;5054118;28;20218;-79
2021/12/21 11:14:54;;;;;;;34.35;2.97;;;;;;;;;;5053754;28;20168;-78
2021/12/21 11:17:21;;;;;;;22.15;1.90;;;5.20;38.80;;;;;;5053794;28;20667;-81
2021/12/21 11:19:47;;;;;;;40.65;3.88;;;;;;;;;;5055056;28;20663;-80
2021/12/21 11:22:13;;;;;;;22.52;3.30;;;;;;;;;;5053756;28;20683;-78
2021/12/21 11:24:40;;;;;;;33.35;3.38;;;;;;;;;;5067347;28;20183;-78
2021/12/21 11:27:06;;;;;;;33.05;2.78;;;4.30;42.20;;;;;;5053327;28;20194;-78
2021/12/21 11:29:34;;;;;;;40.10;3.50;;;4.80;40.10;;;;;;5053368;28;20564;-81
2021/12/21 11:32:02;;;;;;;19.98;1.80;;;;;;;;;;5053586;28;20222;-78
2021/12/21 11:34:33;;;;;;;33.38;3.13;;;5.60;36.60;;;;;;5068333;28;20175;-78
2021/12/21 11:39:43;;;;;;;46.58;3.30;;;6.00;36.30;;;;;;5053240;28;20604;-79
2021/12/21 11:42:17;;;;;;;38.50;3.10;;;;;;;;;;5053336;28;20195;-78
2021/12/21 11:44:58;;;;;;;49.80;4.72;;;6.90;35.00;;;;;;5050893;28;20963;-80
2021/12/21 11:47:43;;;;;;;43.33;3.55;;;;;;;;;;5053339;28;20630;-78
2021/12/21 11:50:10;;;;;;;86.03;5.47;;;8.10;31.10;;;;;;5052634;28;20196;-79
2021/12/21 11:52:49;;;;;;;49.05;3.20;;;;;;;;;;5066797;28;20191;-78
2021/12/21 11:55:16;;;;;;;45.35;2.67;;;9.20;27.90;;;;;;5064614;28;20176;-82
2021/12/21 11:57:54;;;;;;;55.03;3.30;;;9.30;28.00;;;;;;5058026;28;20182;-78
2021/12/21 12:00:22;;;;;;;36.85;2.97;;;9.00;27.50;;;;;;5053125;28;20207;-78
2021/12/21 12:02:49;;;;;;;32.20;3.05;;;;;;;;;;5052912;28;20297;-78
2021/12/21 12:05:15;;;;;;;43.45;3.58;;;7.10;30.20;;;;;;5052257;28;20652;-78
2021/12/21 12:07:41;;;;;;;37.35;3.08;;;;;;;;;;5053024;28;20200;-81
2021/12/21 12:10:12;;;;;;;95.22;4.65;;;;;;;;;;5053346;28;20590;-80
2021/12/21 12:12:38;;;;;;;36.88;3.25;;;8.00;28.90;;;;;;5053344;28;20182;-78
2021/12/21 12:15:07;;;;;;;21.60;2.80;;;8.80;28.90;;;;;;5054710;28;20172;-78
2021/12/21 12:17:33;;;;;;;27.75;2.30;;;;;;;;;;5064232;28;20567;-80
2021/12/21 12:20:05;;;;;;;22.80;2.30;;;;;;;;;;5067059;28;20184;-79
2021/12/21 12:22:43;;;;;;;47.25;3.90;;;7.50;30.10;;;;;;5073771;22;20605;-74
2021/12/21 12:25:20;;;;;;;25.30;2.70;;;7.60;29.60;;;;;;5046294;28;20266;-74
2021/12/21 12:27:52;;;;;;;38.92;3.20;;;8.00;30.10;;;;;;5051518;28;20287;-74
2021/12/21 12:30:24;;;;;;;25.60;3.05;;;7.70;29.10;;;;;;5052354;28;20182;-74
2021/12/21 12:32:55;;;;;;;28.15;2.88;;;7.20;30.50;;;;;;5046906;28;20200;-74
2021/12/21 12:35:27;;;;;;;19.55;2.38;;;7.70;30.70;;;;;;5047221;28;20652;-74
2021/12/21 12:37:57;;;;;;;26.40;3.13;;;8.30;29.50;;;;;;5052510;28;20233;-74
2021/12/21 12:40:45;;;;;;;22.63;3.10;;;8.30;29.50;;;;;;5051592;28;20191;-74
2021/12/21 12:43:18;;;;;;;16.55;3.63;;;8.20;28.90;;;;;;5044815;28;20235;-74
2021/12/21 12:45:51;;;;;;;16.40;2.50;;;;;;;;;;5048599;28;20212;-74
2021/12/21 12:48:29;;;;;;;40.92;4.15;;;7.70;29.70;;;;;;5044950;28;20649;-74
2021/12/21 12:50:57;;;;;;;21.10;2.50;;;8.20;30.00;;;;;;5046330;28;20282;-74
2021/12/21 12:53:41;;;;;;;26.42;2.92;;;8.50;29.00;;;;;;5044685;28;20226;-74
2021/12/21 12:56:08;;;;;;;44.78;4.30;;;7.80;29.50;;;;;;5047325;28;20184;-74
2021/12/21 12:58:35;;;;;;;23.77;3.22;;;7.60;30.70;;;;;;5051062;28;20550;-74
2021/12/21 13:01:18;;;;;;;33.95;4.22;;;7.50;30.80;;;;;;5051383;28;20175;-74
2021/12/21 13:03:44;;;;;;;22.63;2.80;;;7.50;30.60;;;;;;5051633;28;20156;-74
2021/12/21 13:06:22;;;;;;;41.57;4.50;;;7.40;30.70;;;;;;5051162;28;20196;-74
2021/12/21 13:08:48;;;;;;;26.20;4.13;;;7.40;31.20;;;;;;5049326;28;20445;-74
2021/12/21 13:11:25;;;;;;;24.23;3.35;;;6.90;32.80;;;;;;5051308;28;20255;-74
2021/12/21 13:13:53;;;;;;;26.05;3.00;;;6.70;33.50;;;;;;5050318;28;20541;-74
2021/12/21 13:16:22;;;;;;;25.63;3.20;;;7.00;33.80;;;;;;5049615;28;20658;-74
2021/12/21 13:19:03;;;;;;;23.75;2.45;;;7.10;33.20;;;;;;5051133;28;20274;-74
2021/12/21 13:21:34;;;;;;;21.02;2.63;;;7.40;32.10;;;;;;5051096;28;20683;-74
2021/12/21 13:24:02;;;;;;;37.40;4.60;;;6.80;33.50;;;;;;5051789;28;20547;-74
2021/12/21 13:26:39;;;;;;;26.40;3.03;;;6.60;33.40;;;;;;5050898;28;20206;-74
2021/12/21 13:29:06;;;;;;;35.58;2.90;;;;;;;;;;5050834;28;20179;-74
2021/12/21 13:31:32;;;;;;;32.90;4.53;;;;;;;;;;5050984;28;20204;-74
2021/12/21 13:34:00;;;;;;;26.60;3.10;;;8.20;31.70;;;;;;5049927;28;20602;-74
2021/12/21 13:36:46;;;;;;;25.52;2.67;;;8.60;29.70;;;;;;5050593;28;20174;-74
2021/12/21 13:39:19;;;;;;;23.50;2.67;;;;;;;;;;5049064;28;20191;-74
2021/12/21 13:41:55;;;;;;;21.17;2.25;;;8.50;29.40;;;;;;5050887;28;20191;-74
2021/12/21 13:44:26;;;;;;;30.58;3.53;;;8.10;30.60;;;;;;5049603;28;20669;-74
2021/12/21 13:46:53;;;;;;;30.48;3.05;;;7.80;30.80;;;;;;5050478;28;20602;-74
2021/12/21 13:49:19;;;;;;;36.38;3.92;;;7.50;31.60;;;;;;5050757;28;20190;-74
2021/12/21 13:51:52;;;;;;;15.60;1.95;;;;;;;;;;5050676;28;20253;-74
2021/12/21 13:54:19;;;;;;;23.45;2.63;;;7.60;32.80;;;;;;5050714;28;20246;-74
2021/12/21 13:56:46;;;;;;;31.60;4.25;;;8.20;30.70;;;;;;5051850;28;20179;-74
2021/12/21 13:59:13;;;;;;;23.55;2.92;;;;;;;;;;5056979;28;20257;-74
2021/12/21 14:01:39;;;;;;;18.48;2.42;;;7.90;30.90;;;;;;5054110;28;20638;-74
2021/12/21 14:04:08;;;;;;;23.27;3.35;;;;;;;;;;5053606;28;20773;-74
2021/12/21 14:06:35;;;;;;;24.52;2.90;;;;;;;;;;5054519;28;20473;-74
2021/12/21 14:09:04;;;;;;;24.40;3.08;;;7.00;32.70;;;;;;5054821;28;20164;-74
2021/12/21 14:11:31;;;;;;;22.33;3.13;;;;;;;;;;5054059;28;20750;-74
2021/12/21 14:13:58;;;;;;;22.30;3.05;;;;;;;;;;5054615;28;20176;-74
2021/12/21 14:16:26;;;;;;;29.80;3.63;;;;;;;;;;5054255;28;20174;-74
2021/12/21 14:18:54;;;;;;;31.85;4.28;;;;;;;;;;5054357;28;20646;-74
2021/12/21 14:21:22;;;;;;;31.27;3.22;;;;;;;;;;5052897;28;20194;-74
2021/12/21 14:24:07;;;;;;;23.38;2.30;;;6.50;34.30;;;;;;5054559;28;20237;-74
2021/12/21 14:26:36;;;;;;;38.45;3.22;;;;;;;;;;5054304;28;20184;-74
2021/12/21 14:29:12;;;;;;;26.17;3.00;;;6.40;34.10;;;;;;5054770;28;20255;-74
2021/12/21 14:31:48;;;;;;;14.25;1.70;;;6.50;34.50;;;;;;5053931;28;20286;-75
2021/12/21 14:34:26;;;;;;;16.13;1.88;;;6.60;34.50;;;;;;5053002;28;20163;-75
2021/12/21 14:36:53;;;;;;;22.63;2.53;;;;;;;;;;5053725;28;20263;-75
2021/12/21 14:39:20;;;;;;;36.20;4.30;;;6.30;34.60;;;;;;5054036;28;20655;-75
2021/12/21 14:41:47;;;;;;;19.13;2.80;;;;;;;;;;5052025;28;20211;-75
2021/12/21 14:44:13;;;;;;;19.38;2.58;;;;;;;;;;5054046;28;20199;-75
2021/12/21 14:46:53;;;;;;;25.08;2.78;;;6.50;34.10;;;;;;5053704;28;20227;-75
2021/12/21 14:49:33;;;;;;;24.85;2.50;;;;;;;;;;5053798;28;20171;-75
2021/12/21 14:52:08;;;;;;;33.78;3.00;;;6.50;34.00;;;;;;5053445;28;20223;-75
2021/12/21 14:54:51;;;;;;;20.55;2.75;;;;;;;;;;5053970;28;20221;-75
2021/12/21 14:57:30;;;;;;;42.60;3.05;;;6.60;34.30;;;;;;5053887;28;20182;-75
2021/12/21 14:59:56;;;;;;;17.30;2.83;;;;;;;;;;5053552;28;20172;-75
2021/12/21 15:03:07;;;;;;;17.25;2.05;;;;;;;;;;5053519;28;20245;-75
2021/12/21 15:05:09;;;;;;;27.17;2.80;;;6.30;34.80;;;;;;5049670;28;20291;-75
2021/12/21 15:07:39;;;;;;;33.45;4.20;;;6.00;35.50;;;;;;5053205;28;20291;-75
2021/12/21 15:10:06;;;;;;;18.50;2.30;;;5.80;35.80;;;;;;5052968;28;20190;-75
2021/12/21 15:12:32;;;;;;;25.70;2.80;;;;;;;;;;5053508;28;20188;-75